sensor_id;sensor_type;location;lat;lon;timestamp;temperature;humidity
16491;DHT22;8356;51.214;3.270;2022-08-20T00:01:27;512.90;2380.80
16491;DHT22;8356;51.214;3.270;2022-08-20T00:03:53;537.60;2406.40
16491;DHT22;8356;51.214;3.270;2022-08-20T00:06:21;537.60;2406.40
16491;DHT22;8356;51.214;3.270;2022-08-20T00:08:47;512.90;2380.80
16491;DHT22;8356;51.214;3.270;2022-08-20T00:11:16;512.90;2380.80
16491;DHT22;8356;51.214;3.270;2022-08-20T00:13:47;512.80;2380.80
16491;DHT22;8356;51.214;3.270;2022-08-20T00:16:15;512.80;2380.80
16491;DHT22;8356;51.214;3.270;2022-08-20T00:18:42;512.90;2380.80
16491;DHT22;8356;51.214;3.270;2022-08-20T00:21:10;512.70;2380.80
16491;DHT22;8356;51.214;3.270;2022-08-20T00:23:37;512.70;2380.80
16491;DHT22;8356;51.214;3.270;2022-08-20T00:26:03;512.70;2380.80
16491;DHT22;8356;51.214;3.270;2022-08-20T00:28:29;512.70;2380.80
16491;DHT22;8356;51.214;3.270;2022-08-20T00:30:58;512.80;2380.80
16491;DHT22;8356;51.214;3.270;2022-08-20T00:33:24;512.80;2380.80
16491;DHT22;8356;51.214;3.270;2022-08-20T00:35:52;512.80;2380.80
16491;DHT22;8356;51.214;3.270;2022-08-20T00:38:21;512.80;2380.80
16491;DHT22;8356;51.214;3.270;2022-08-20T00:40:52;512.70;2380.80
16491;DHT22;8356;51.214;3.270;2022-08-20T00:43:46;512.60;2380.80
16491;DHT22;8356;51.214;3.270;2022-08-20T00:46:26;512.60;2380.80
16491;DHT22;8356;51.214;3.270;2022-08-20T00:48:54;512.50;2380.80
16491;DHT22;8356;51.214;3.270;2022-08-20T00:51:39;512.50;2380.80
16491;DHT22;8356;51.214;3.270;2022-08-20T00:56:38;512.30;2380.80
16491;DHT22;8356;51.214;3.270;2022-08-20T00:59:08;512.20;2380.80
16491;DHT22;8356;51.214;3.270;2022-08-20T01:01:41;512.30;2380.80
16491;DHT22;8356;51.214;3.270;2022-08-20T01:04:07;512.20;2380.80
16491;DHT22;8356;51.214;3.270;2022-08-20T01:06:36;512.00;2380.80
16491;DHT22;8356;51.214;3.270;2022-08-20T01:09:03;512.00;2380.80
16491;DHT22;8356;51.214;3.270;2022-08-20T01:11:29;487.20;2380.80
16491;DHT22;8356;51.214;3.270;2022-08-20T01:14:06;487.10;2380.80
16491;DHT22;8356;51.214;3.270;2022-08-20T01:16:53;487.10;2380.80
16491;DHT22;8356;51.214;3.270;2022-08-20T01:19:26;487.20;2380.80
16491;DHT22;8356;51.214;3.270;2022-08-20T01:21:53;487.10;2380.80
16491;DHT22;8356;51.214;3.270;2022-08-20T01:24:26;487.10;2380.80
16491;DHT22;8356;51.214;3.270;2022-08-20T01:26:54;487.10;2380.80
16491;DHT22;8356;51.214;3.270;2022-08-20T01:29:28;487.20;2380.80
16491;DHT22;8356;51.214;3.270;2022-08-20T01:31:55;487.20;2380.80
16491;DHT22;8356;51.214;3.270;2022-08-20T01:34:26;487.20;2380.80
16491;DHT22;8356;51.214;3.270;2022-08-20T01:36:53;487.10;2380.80
16491;DHT22;8356;51.214;3.270;2022-08-20T01:39:29;487.10;2380.80
16491;DHT22;8356;51.214;3.270;2022-08-20T01:44:38;487.10;2380.80
16491;DHT22;8356;51.214;3.270;2022-08-20T01:47:29;487.10;2380.80
16491;DHT22;8356;51.214;3.270;2022-08-20T01:49:58;487.10;2380.80
16491;DHT22;8356;51.214;3.270;2022-08-20T01:55:03;486.90;2380.80
16491;DHT22;8356;51.214;3.270;2022-08-20T01:57:29;486.70;2380.80
16491;DHT22;8356;51.214;3.270;2022-08-20T01:59:55;486.80;2380.80
16491;DHT22;8356;51.214;3.270;2022-08-20T02:02:21;486.90;2380.80
16491;DHT22;8356;51.214;3.270;2022-08-20T02:04:48;487.00;2380.80
16491;DHT22;8356;51.214;3.270;2022-08-20T02:07:17;487.00;2380.80
16491;DHT22;8356;51.214;3.270;2022-08-20T02:09:45;487.00;2380.80
16491;DHT22;8356;51.214;3.270;2022-08-20T02:12:12;487.00;2380.80
16491;DHT22;8356;51.214;3.270;2022-08-20T02:14:40;487.10;2380.80
16491;DHT22;8356;51.214;3.270;2022-08-20T02:17:07;487.10;2380.80
16491;DHT22;8356;51.214;3.270;2022-08-20T02:19:34;487.10;2380.80
16491;DHT22;8356;51.214;3.270;2022-08-20T02:22:10;487.10;2380.80
16491;DHT22;8356;51.214;3.270;2022-08-20T02:24:38;487.10;2380.80
16491;DHT22;8356;51.214;3.270;2022-08-20T02:27:03;487.10;2380.80
16491;DHT22;8356;51.214;3.270;2022-08-20T02:29:29;487.10;2380.80
16491;DHT22;8356;51.214;3.270;2022-08-20T02:31:55;487.10;2380.80
16491;DHT22;8356;51.214;3.270;2022-08-20T02:34:20;487.10;2380.80
16491;DHT22;8356;51.214;3.270;2022-08-20T02:36:46;487.10;2380.80
16491;DHT22;8356;51.214;3.270;2022-08-20T02:39:14;486.90;2380.80
16491;DHT22;8356;51.214;3.270;2022-08-20T02:41:40;486.90;2380.80
16491;DHT22;8356;51.214;3.270;2022-08-20T02:44:06;487.00;2380.80
16491;DHT22;8356;51.214;3.270;2022-08-20T02:46:33;486.70;2380.80
16491;DHT22;8356;51.214;3.270;2022-08-20T02:48:59;487.10;2380.80
16491;DHT22;8356;51.214;3.270;2022-08-20T02:51:25;487.10;2380.80
16491;DHT22;8356;51.214;3.270;2022-08-20T02:53:51;487.10;2380.80
16491;DHT22;8356;51.214;3.270;2022-08-20T02:56:17;487.10;2380.80
16491;DHT22;8356;51.214;3.270;2022-08-20T02:58:44;487.00;2380.80
16491;DHT22;8356;51.214;3.270;2022-08-20T03:01:13;486.90;2380.80
16491;DHT22;8356;51.214;3.270;2022-08-20T03:03:40;486.90;2380.80
16491;DHT22;8356;51.214;3.270;2022-08-20T03:06:07;487.00;2380.80
16491;DHT22;8356;51.214;3.270;2022-08-20T03:08:34;487.00;2380.80
16491;DHT22;8356;51.214;3.270;2022-08-20T03:11:00;487.00;2380.80
16491;DHT22;8356;51.214;3.270;2022-08-20T03:13:25;486.90;2380.80
16491;DHT22;8356;51.214;3.270;2022-08-20T03:15:55;486.90;2380.80
16491;DHT22;8356;51.214;3.270;2022-08-20T03:18:22;486.90;2380.80
16491;DHT22;8356;51.214;3.270;2022-08-20T03:20:49;486.90;2380.80
16491;DHT22;8356;51.214;3.270;2022-08-20T03:23:16;486.90;2380.80
16491;DHT22;8356;51.214;3.270;2022-08-20T03:25:42;486.80;2380.80
16491;DHT22;8356;51.214;3.270;2022-08-20T03:28:09;486.80;2380.80
16491;DHT22;8356;51.214;3.270;2022-08-20T03:30:35;486.70;2380.80
16491;DHT22;8356;51.214;3.270;2022-08-20T03:33:01;486.70;2380.80
16491;DHT22;8356;51.214;3.270;2022-08-20T03:35:30;486.60;2380.80
16491;DHT22;8356;51.214;3.270;2022-08-20T03:37:56;486.60;2380.80
16491;DHT22;8356;51.214;3.270;2022-08-20T03:40:25;486.60;2380.80
16491;DHT22;8356;51.214;3.270;2022-08-20T03:42:51;486.60;2380.80
16491;DHT22;8356;51.214;3.270;2022-08-20T03:45:18;486.70;2380.80
16491;DHT22;8356;51.214;3.270;2022-08-20T03:47:45;486.60;2380.80
16491;DHT22;8356;51.214;3.270;2022-08-20T03:50:12;486.70;2380.80
16491;DHT22;8356;51.214;3.270;2022-08-20T03:52:38;486.80;2380.80
16491;DHT22;8356;51.214;3.270;2022-08-20T03:55:06;486.80;2380.80
16491;DHT22;8356;51.214;3.270;2022-08-20T03:57:32;486.70;2380.80
16491;DHT22;8356;51.214;3.270;2022-08-20T03:59:58;486.70;2380.80
16491;DHT22;8356;51.214;3.270;2022-08-20T04:02:24;486.70;2380.80
16491;DHT22;8356;51.214;3.270;2022-08-20T04:04:49;486.70;2380.80
16491;DHT22;8356;51.214;3.270;2022-08-20T04:07:18;486.70;2380.80
16491;DHT22;8356;51.214;3.270;2022-08-20T04:09:53;486.70;2380.80
16491;DHT22;8356;51.214;3.270;2022-08-20T04:12:19;486.70;2380.80
16491;DHT22;8356;51.214;3.270;2022-08-20T04:14:45;486.70;2380.80
16491;DHT22;8356;51.214;3.270;2022-08-20T04:17:11;486.60;2380.80
16491;DHT22;8356;51.214;3.270;2022-08-20T04:19:39;486.60;2380.80
16491;DHT22;8356;51.214;3.270;2022-08-20T04:22:05;486.50;2380.80
16491;DHT22;8356;51.214;3.270;2022-08-20T04:24:31;486.50;2380.80
16491;DHT22;8356;51.214;3.270;2022-08-20T04:26:57;486.50;2380.80
16491;DHT22;8356;51.214;3.270;2022-08-20T04:29:24;486.60;2380.80
16491;DHT22;8356;51.214;3.270;2022-08-20T04:31:51;486.60;2380.80
16491;DHT22;8356;51.214;3.270;2022-08-20T04:34:17;486.50;2380.80
16491;DHT22;8356;51.214;3.270;2022-08-20T04:36:44;486.50;2380.80
16491;DHT22;8356;51.214;3.270;2022-08-20T04:39:12;486.40;2380.80
16491;DHT22;8356;51.214;3.270;2022-08-20T04:41:38;486.50;2380.80
16491;DHT22;8356;51.214;3.270;2022-08-20T04:44:04;486.50;2380.80
16491;DHT22;8356;51.214;3.270;2022-08-20T04:46:30;486.40;2380.80
16491;DHT22;8356;51.214;3.270;2022-08-20T04:48:57;486.40;2380.80
16491;DHT22;8356;51.214;3.270;2022-08-20T04:51:23;486.50;2380.80
16491;DHT22;8356;51.214;3.270;2022-08-20T04:53:50;486.60;2380.80
16491;DHT22;8356;51.214;3.270;2022-08-20T04:56:17;486.50;2380.80
16491;DHT22;8356;51.214;3.270;2022-08-20T04:58:44;486.50;2380.80
16491;DHT22;8356;51.214;3.270;2022-08-20T05:01:13;486.50;2380.80
16491;DHT22;8356;51.214;3.270;2022-08-20T05:03:40;486.50;2380.80
16491;DHT22;8356;51.214;3.270;2022-08-20T05:06:08;486.50;2380.80
16491;DHT22;8356;51.214;3.270;2022-08-20T05:08:34;486.50;2380.80
16491;DHT22;8356;51.214;3.270;2022-08-20T05:11:03;486.50;2380.80
16491;DHT22;8356;51.214;3.270;2022-08-20T05:13:28;486.50;2380.80
16491;DHT22;8356;51.214;3.270;2022-08-20T05:15:54;486.50;2380.80
16491;DHT22;8356;51.214;3.270;2022-08-20T05:18:23;486.50;2380.80
16491;DHT22;8356;51.214;3.270;2022-08-20T05:20:49;486.50;2380.80
16491;DHT22;8356;51.214;3.270;2022-08-20T05:23:17;486.50;2380.80
16491;DHT22;8356;51.214;3.270;2022-08-20T05:25:44;486.50;2380.80
16491;DHT22;8356;51.214;3.270;2022-08-20T05:28:18;486.50;2380.80
16491;DHT22;8356;51.214;3.270;2022-08-20T05:30:46;486.60;2380.80
16491;DHT22;8356;51.214;3.270;2022-08-20T05:33:13;486.60;2380.80
16491;DHT22;8356;51.214;3.270;2022-08-20T05:35:41;486.70;2380.80
16491;DHT22;8356;51.214;3.270;2022-08-20T05:38:09;486.70;2380.80
16491;DHT22;8356;51.214;3.270;2022-08-20T05:40:39;486.70;2380.80
16491;DHT22;8356;51.214;3.270;2022-08-20T05:43:05;486.70;2380.80
16491;DHT22;8356;51.214;3.270;2022-08-20T05:45:32;486.70;2380.80
16491;DHT22;8356;51.214;3.270;2022-08-20T05:48:02;486.70;2380.80
16491;DHT22;8356;51.214;3.270;2022-08-20T05:50:28;486.70;2380.80
16491;DHT22;8356;51.214;3.270;2022-08-20T05:52:54;486.60;2380.80
16491;DHT22;8356;51.214;3.270;2022-08-20T05:55:19;486.70;2380.80
16491;DHT22;8356;51.214;3.270;2022-08-20T05:57:45;486.70;2380.80
16491;DHT22;8356;51.214;3.270;2022-08-20T06:00:13;486.70;2380.80
16491;DHT22;8356;51.214;3.270;2022-08-20T06:02:39;486.70;2380.80
16491;DHT22;8356;51.214;3.270;2022-08-20T06:05:23;486.70;2380.80
16491;DHT22;8356;51.214;3.270;2022-08-20T06:07:50;486.70;2380.80
16491;DHT22;8356;51.214;3.270;2022-08-20T06:10:16;486.70;2380.80
16491;DHT22;8356;51.214;3.270;2022-08-20T06:12:42;486.70;2380.80
16491;DHT22;8356;51.214;3.270;2022-08-20T06:15:12;486.70;2380.80
16491;DHT22;8356;51.214;3.270;2022-08-20T06:17:38;486.80;2380.80
16491;DHT22;8356;51.214;3.270;2022-08-20T06:20:07;486.80;2380.80
16491;DHT22;8356;51.214;3.270;2022-08-20T06:22:33;486.90;2380.80
16491;DHT22;8356;51.214;3.270;2022-08-20T06:25:00;486.90;2380.80
16491;DHT22;8356;51.214;3.270;2022-08-20T06:27:26;487.00;2380.80
16491;DHT22;8356;51.214;3.270;2022-08-20T06:29:53;487.00;2380.80
16491;DHT22;8356;51.214;3.270;2022-08-20T06:32:19;487.00;2380.80
16491;DHT22;8356;51.214;3.270;2022-08-20T06:34:47;487.10;2380.80
16491;DHT22;8356;51.214;3.270;2022-08-20T06:37:21;487.10;2380.80
16491;DHT22;8356;51.214;3.270;2022-08-20T06:39:49;487.10;2380.80
16491;DHT22;8356;51.214;3.270;2022-08-20T06:42:16;487.10;2380.80
16491;DHT22;8356;51.214;3.270;2022-08-20T06:44:41;487.10;2380.80
16491;DHT22;8356;51.214;3.270;2022-08-20T06:47:07;487.30;2380.80
16491;DHT22;8356;51.214;3.270;2022-08-20T06:49:35;487.30;2380.80
16491;DHT22;8356;51.214;3.270;2022-08-20T06:52:04;512.00;2380.80
16491;DHT22;8356;51.214;3.270;2022-08-20T06:54:30;512.00;2380.80
16491;DHT22;8356;51.214;3.270;2022-08-20T06:56:55;512.10;2380.80
16491;DHT22;8356;51.214;3.270;2022-08-20T06:59:21;512.10;2380.80
16491;DHT22;8356;51.214;3.270;2022-08-20T07:01:47;512.20;2380.80
16491;DHT22;8356;51.214;3.270;2022-08-20T07:04:15;512.40;2380.80
16491;DHT22;8356;51.214;3.270;2022-08-20T07:06:42;512.50;2380.80
16491;DHT22;8356;51.214;3.270;2022-08-20T07:09:08;512.70;2380.80
16491;DHT22;8356;51.214;3.270;2022-08-20T07:11:34;512.80;2380.80
16491;DHT22;8356;51.214;3.270;2022-08-20T07:14:00;512.90;2380.80
16491;DHT22;8356;51.214;3.270;2022-08-20T07:16:29;537.60;2406.40
16491;DHT22;8356;51.214;3.270;2022-08-20T07:18:54;537.70;2406.40
16491;DHT22;8356;51.214;3.270;2022-08-20T07:21:20;537.80;2406.40
16491;DHT22;8356;51.214;3.270;2022-08-20T07:23:45;538.00;2406.40
16491;DHT22;8356;51.214;3.270;2022-08-20T07:26:13;538.10;2406.40
16491;DHT22;8356;51.214;3.270;2022-08-20T07:28:39;538.30;2406.40
16491;DHT22;8356;51.214;3.270;2022-08-20T07:31:05;538.40;2406.40
16491;DHT22;8356;51.214;3.270;2022-08-20T07:33:49;563.20;2432.00
16491;DHT22;8356;51.214;3.270;2022-08-20T07:36:15;563.40;2432.00
16491;DHT22;8356;51.214;3.270;2022-08-20T07:38:41;563.50;2432.00
16491;DHT22;8356;51.214;3.270;2022-08-20T07:41:11;563.50;2432.00
16491;DHT22;8356;51.214;3.270;2022-08-20T07:43:38;563.50;2432.00
16491;DHT22;8356;51.214;3.270;2022-08-20T07:46:04;563.50;2432.00
16491;DHT22;8356;51.214;3.270;2022-08-20T07:48:35;563.50;2432.00
16491;DHT22;8356;51.214;3.270;2022-08-20T07:51:03;563.50;2432.00
16491;DHT22;8356;51.214;3.270;2022-08-20T07:53:30;563.70;2432.00
16491;DHT22;8356;51.214;3.270;2022-08-20T07:55:57;563.70;2432.00
16491;DHT22;8356;51.214;3.270;2022-08-20T07:58:23;563.90;2432.00
16491;DHT22;8356;51.214;3.270;2022-08-20T08:00:50;588.80;2432.00
16491;DHT22;8356;51.214;3.270;2022-08-20T08:03:16;589.00;2432.00
16491;DHT22;8356;51.214;3.270;2022-08-20T08:05:44;589.10;2432.00
16491;DHT22;8356;51.214;3.270;2022-08-20T08:08:13;589.10;2432.00
16491;DHT22;8356;51.214;3.270;2022-08-20T08:10:43;589.10;2432.00
16491;DHT22;8356;51.214;3.270;2022-08-20T08:13:11;589.00;2432.00
16491;DHT22;8356;51.214;3.270;2022-08-20T08:15:40;589.20;2432.00
16491;DHT22;8356;51.214;3.270;2022-08-20T08:18:18;589.20;2432.00
16491;DHT22;8356;51.214;3.270;2022-08-20T08:20:47;589.30;2432.00
16491;DHT22;8356;51.214;3.270;2022-08-20T08:23:15;589.60;2432.00
16491;DHT22;8356;51.214;3.270;2022-08-20T08:25:41;589.60;2432.00
16491;DHT22;8356;51.214;3.270;2022-08-20T08:28:10;589.60;2432.00
16491;DHT22;8356;51.214;3.270;2022-08-20T08:30:40;614.40;2432.00
16491;DHT22;8356;51.214;3.270;2022-08-20T08:33:07;614.60;2432.00
16491;DHT22;8356;51.214;3.270;2022-08-20T08:35:57;614.70;2432.00
16491;DHT22;8356;51.214;3.270;2022-08-20T08:38:23;614.70;2432.00
16491;DHT22;8356;51.214;3.270;2022-08-20T08:40:51;614.60;2432.00
16491;DHT22;8356;51.214;3.270;2022-08-20T08:43:19;614.50;2432.00
16491;DHT22;8356;51.214;3.270;2022-08-20T08:45:53;614.50;2432.00
16491;DHT22;8356;51.214;3.270;2022-08-20T08:48:21;614.70;2432.00
16491;DHT22;8356;51.214;3.270;2022-08-20T08:50:49;614.90;2432.00
16491;DHT22;8356;51.214;3.270;2022-08-20T08:53:23;615.10;2432.00
16491;DHT22;8356;51.214;3.270;2022-08-20T08:55:49;615.30;2432.00
16491;DHT22;8356;51.214;3.270;2022-08-20T08:58:15;640.10;2432.00
16491;DHT22;8356;51.214;3.270;2022-08-20T09:00:40;640.30;2432.00
16491;DHT22;8356;51.214;3.270;2022-08-20T09:03:20;640.50;2432.00
16491;DHT22;8356;51.214;3.270;2022-08-20T09:05:53;640.50;2432.00
16491;DHT22;8356;51.214;3.270;2022-08-20T09:08:31;640.50;2432.00
16491;DHT22;8356;51.214;3.270;2022-08-20T09:11:03;615.30;2432.00
16491;DHT22;8356;51.214;3.270;2022-08-20T09:13:29;614.90;2432.00
16491;DHT22;8356;51.214;3.270;2022-08-20T09:15:55;614.60;2432.00
16491;DHT22;8356;51.214;3.270;2022-08-20T09:18:20;614.40;2432.00
16491;DHT22;8356;51.214;3.270;2022-08-20T09:20:46;589.60;2432.00
16491;DHT22;8356;51.214;3.270;2022-08-20T09:23:11;589.50;2432.00
16491;DHT22;8356;51.214;3.270;2022-08-20T09:25:37;589.50;2432.00
16491;DHT22;8356;51.214;3.270;2022-08-20T09:28:03;589.30;2432.00
16491;DHT22;8356;51.214;3.270;2022-08-20T09:30:29;589.30;2432.00
16491;DHT22;8356;51.214;3.270;2022-08-20T09:32:58;589.70;2432.00
16491;DHT22;8356;51.214;3.270;2022-08-20T09:35:23;615.00;2432.00
16491;DHT22;8356;51.214;3.270;2022-08-20T09:37:49;640.10;2432.00
16491;DHT22;8356;51.214;3.270;2022-08-20T09:40:17;640.00;2432.00
16491;DHT22;8356;51.214;3.270;2022-08-20T09:42:42;614.90;2432.00
16491;DHT22;8356;51.214;3.270;2022-08-20T09:45:09;614.60;2432.00
16491;DHT22;8356;51.214;3.270;2022-08-20T09:47:35;614.70;2432.00
16491;DHT22;8356;51.214;3.270;2022-08-20T09:50:01;615.10;2432.00
16491;DHT22;8356;51.214;3.270;2022-08-20T09:52:40;615.10;2432.00
16491;DHT22;8356;51.214;3.270;2022-08-20T09:57:41;614.60;2432.00
16491;DHT22;8356;51.214;3.270;2022-08-20T10:00:07;615.00;2432.00
16491;DHT22;8356;51.214;3.270;2022-08-20T10:02:34;640.20;2432.00
16491;DHT22;8356;51.214;3.270;2022-08-20T10:05:00;640.50;2432.00
16491;DHT22;8356;51.214;3.270;2022-08-20T10:07:26;640.80;2432.00
16491;DHT22;8356;51.214;3.270;2022-08-20T10:09:51;640.80;2432.00
16491;DHT22;8356;51.214;3.270;2022-08-20T10:12:17;640.80;2432.00
16491;DHT22;8356;51.214;3.270;2022-08-20T10:14:42;640.40;2432.00
16491;DHT22;8356;51.214;3.270;2022-08-20T10:17:08;640.40;2432.00
16491;DHT22;8356;51.214;3.270;2022-08-20T10:19:34;640.50;2432.00
16491;DHT22;8356;51.214;3.270;2022-08-20T10:22:00;640.50;2432.00
16491;DHT22;8356;51.214;3.270;2022-08-20T10:24:27;640.80;2432.00
16491;DHT22;8356;51.214;3.270;2022-08-20T10:26:57;665.70;2432.00
16491;DHT22;8356;51.214;3.270;2022-08-20T10:29:25;665.90;2432.00
16491;DHT22;8356;51.214;3.270;2022-08-20T10:31:52;665.60;2432.00
16491;DHT22;8356;51.214;3.270;2022-08-20T10:34:18;640.50;2432.00
16491;DHT22;8356;51.214;3.270;2022-08-20T10:36:44;640.00;2432.00
16491;DHT22;8356;51.214;3.270;2022-08-20T10:39:10;640.10;2432.00
16491;DHT22;8356;51.214;3.270;2022-08-20T10:41:35;640.30;2432.00
16491;DHT22;8356;51.214;3.270;2022-08-20T10:44:02;640.70;2432.00
16491;DHT22;8356;51.214;3.270;2022-08-20T10:46:28;640.80;2432.00
16491;DHT22;8356;51.214;3.270;2022-08-20T10:48:54;640.70;2432.00
16491;DHT22;8356;51.214;3.270;2022-08-20T10:51:19;640.20;2432.00
16491;DHT22;8356;51.214;3.270;2022-08-20T10:53:45;615.30;2432.00
16491;DHT22;8356;51.214;3.270;2022-08-20T10:56:11;615.30;2432.00
16491;DHT22;8356;51.214;3.270;2022-08-20T10:58:36;640.30;2432.00
16491;DHT22;8356;51.214;3.270;2022-08-20T11:01:02;640.10;2432.00
16491;DHT22;8356;51.214;3.270;2022-08-20T11:03:27;640.10;2432.00
16491;DHT22;8356;51.214;3.270;2022-08-20T11:05:53;640.30;2432.00
16491;DHT22;8356;51.214;3.270;2022-08-20T11:08:19;640.60;2432.00
16491;DHT22;8356;51.214;3.270;2022-08-20T11:10:44;640.70;2432.00
16491;DHT22;8356;51.214;3.270;2022-08-20T11:13:10;665.60;2432.00
16491;DHT22;8356;51.214;3.270;2022-08-20T11:15:38;665.90;2432.00
16491;DHT22;8356;51.214;3.270;2022-08-20T11:18:05;666.00;2432.00
16491;DHT22;8356;51.214;3.270;2022-08-20T11:20:31;666.30;2432.00
16491;DHT22;8356;51.214;3.270;2022-08-20T11:22:57;666.00;2432.00
16491;DHT22;8356;51.214;3.270;2022-08-20T11:25:24;666.00;2432.00
16491;DHT22;8356;51.214;3.270;2022-08-20T11:27:51;666.00;2432.00
16491;DHT22;8356;51.214;3.270;2022-08-20T11:30:28;666.00;2432.00
16491;DHT22;8356;51.214;3.270;2022-08-20T11:32:54;666.30;2432.00
16491;DHT22;8356;51.214;3.270;2022-08-20T11:35:20;691.20;2432.00
16491;DHT22;8356;51.214;3.270;2022-08-20T11:37:51;691.40;2432.00
16491;DHT22;8356;51.214;3.270;2022-08-20T11:40:17;691.40;2432.00
16491;DHT22;8356;51.214;3.270;2022-08-20T11:42:43;666.50;2432.00
16491;DHT22;8356;51.214;3.270;2022-08-20T11:45:09;666.30;2432.00
16491;DHT22;8356;51.214;3.270;2022-08-20T11:47:35;666.30;2432.00
16491;DHT22;8356;51.214;3.270;2022-08-20T11:50:13;691.20;2432.00
16491;DHT22;8356;51.214;3.270;2022-08-20T11:52:39;666.50;2432.00
16491;DHT22;8356;51.214;3.270;2022-08-20T11:55:07;666.30;2432.00
16491;DHT22;8356;51.214;3.270;2022-08-20T11:57:34;666.20;2432.00
16491;DHT22;8356;51.214;3.270;2022-08-20T12:00:03;666.00;2432.00
16491;DHT22;8356;51.214;3.270;2022-08-20T12:02:29;666.30;2432.00
16491;DHT22;8356;51.214;3.270;2022-08-20T12:04:55;666.30;2432.00
16491;DHT22;8356;51.214;3.270;2022-08-20T12:07:23;666.20;2432.00
16491;DHT22;8356;51.214;3.270;2022-08-20T12:09:50;665.80;2432.00
16491;DHT22;8356;51.214;3.270;2022-08-20T12:12:17;640.90;2432.00
16491;DHT22;8356;51.214;3.270;2022-08-20T12:14:43;665.90;2432.00
16491;DHT22;8356;51.214;3.270;2022-08-20T12:17:15;666.50;2432.00
16491;DHT22;8356;51.214;3.270;2022-08-20T12:19:44;691.40;2432.00
16491;DHT22;8356;51.214;3.270;2022-08-20T12:22:10;666.50;2432.00
16491;DHT22;8356;51.214;3.270;2022-08-20T12:24:36;666.20;2432.00
16491;DHT22;8356;51.214;3.270;2022-08-20T12:27:17;666.00;2432.00
16491;DHT22;8356;51.214;3.270;2022-08-20T12:29:45;666.00;2432.00
16491;DHT22;8356;51.214;3.270;2022-08-20T12:32:12;640.80;2432.00
16491;DHT22;8356;51.214;3.270;2022-08-20T12:34:40;640.50;2432.00
16491;DHT22;8356;51.214;3.270;2022-08-20T12:37:12;640.40;2432.00
16491;DHT22;8356;51.214;3.270;2022-08-20T12:39:39;640.30;2432.00
16491;DHT22;8356;51.214;3.270;2022-08-20T12:42:06;640.20;2432.00
16491;DHT22;8356;51.214;3.270;2022-08-20T12:44:32;640.20;2432.00
16491;DHT22;8356;51.214;3.270;2022-08-20T12:47:14;640.40;2432.00
16491;DHT22;8356;51.214;3.270;2022-08-20T12:49:43;640.80;2432.00
16491;DHT22;8356;51.214;3.270;2022-08-20T12:52:11;640.70;2432.00
16491;DHT22;8356;51.214;3.270;2022-08-20T12:54:38;665.60;2432.00
16491;DHT22;8356;51.214;3.270;2022-08-20T12:57:04;665.80;2432.00
16491;DHT22;8356;51.214;3.270;2022-08-20T12:59:30;665.80;2432.00
16491;DHT22;8356;51.214;3.270;2022-08-20T13:01:56;665.60;2432.00
16491;DHT22;8356;51.214;3.270;2022-08-20T13:04:22;665.70;2432.00
16491;DHT22;8356;51.214;3.270;2022-08-20T13:06:48;665.90;2432.00
16491;DHT22;8356;51.214;3.270;2022-08-20T13:09:15;665.80;2432.00
16491;DHT22;8356;51.214;3.270;2022-08-20T13:11:41;665.80;2432.00
16491;DHT22;8356;51.214;3.270;2022-08-20T13:14:07;665.60;2432.00
16491;DHT22;8356;51.214;3.270;2022-08-20T13:16:34;640.90;2432.00
16491;DHT22;8356;51.214;3.270;2022-08-20T13:18:59;666.00;2432.00
16491;DHT22;8356;51.214;3.270;2022-08-20T13:21:25;666.30;2432.00
16491;DHT22;8356;51.214;3.270;2022-08-20T13:23:51;666.00;2432.00
16491;DHT22;8356;51.214;3.270;2022-08-20T13:26:17;665.80;2432.00
16491;DHT22;8356;51.214;3.270;2022-08-20T13:28:43;640.90;2432.00
16491;DHT22;8356;51.214;3.270;2022-08-20T13:31:08;640.90;2432.00
16491;DHT22;8356;51.214;3.270;2022-08-20T13:33:34;665.80;2432.00
16491;DHT22;8356;51.214;3.270;2022-08-20T13:36:00;666.00;2432.00
16491;DHT22;8356;51.214;3.270;2022-08-20T13:38:25;665.90;2432.00
16491;DHT22;8356;51.214;3.270;2022-08-20T13:40:51;665.60;2432.00
16491;DHT22;8356;51.214;3.270;2022-08-20T13:43:17;640.80;2432.00
16491;DHT22;8356;51.214;3.270;2022-08-20T13:45:42;640.30;2432.00
16491;DHT22;8356;51.214;3.270;2022-08-20T13:48:08;640.20;2432.00
16491;DHT22;8356;51.214;3.270;2022-08-20T13:50:34;640.40;2432.00
16491;DHT22;8356;51.214;3.270;2022-08-20T13:53:00;665.80;2432.00
16491;DHT22;8356;51.214;3.270;2022-08-20T13:55:27;666.00;2432.00
16491;DHT22;8356;51.214;3.270;2022-08-20T13:57:54;666.00;2432.00
16491;DHT22;8356;51.214;3.270;2022-08-20T14:00:24;640.90;2432.00
16491;DHT22;8356;51.214;3.270;2022-08-20T14:02:50;640.90;2432.00
16491;DHT22;8356;51.214;3.270;2022-08-20T14:05:16;665.90;2432.00
16491;DHT22;8356;51.214;3.270;2022-08-20T14:07:42;666.00;2432.00
16491;DHT22;8356;51.214;3.270;2022-08-20T14:10:12;665.60;2432.00
16491;DHT22;8356;51.214;3.270;2022-08-20T14:12:38;640.60;2432.00
16491;DHT22;8356;51.214;3.270;2022-08-20T14:15:04;640.70;2432.00
16491;DHT22;8356;51.214;3.270;2022-08-20T14:17:33;640.70;2432.00
16491;DHT22;8356;51.214;3.270;2022-08-20T14:20:07;665.60;2432.00
16491;DHT22;8356;51.214;3.270;2022-08-20T14:22:34;665.90;2432.00
16491;DHT22;8356;51.214;3.270;2022-08-20T14:24:59;665.90;2432.00
16491;DHT22;8356;51.214;3.270;2022-08-20T14:27:29;666.00;2432.00
16491;DHT22;8356;51.214;3.270;2022-08-20T14:29:56;665.80;2432.00
16491;DHT22;8356;51.214;3.270;2022-08-20T14:32:22;665.80;2432.00
16491;DHT22;8356;51.214;3.270;2022-08-20T14:34:47;665.70;2432.00
16491;DHT22;8356;51.214;3.270;2022-08-20T14:39:39;640.90;2432.00
16491;DHT22;8356;51.214;3.270;2022-08-20T14:42:05;640.30;2432.00
16491;DHT22;8356;51.214;3.270;2022-08-20T14:44:30;665.60;2432.00
16491;DHT22;8356;51.214;3.270;2022-08-20T14:46:56;640.90;2432.00
16491;DHT22;8356;51.214;3.270;2022-08-20T14:49:22;640.90;2432.00
16491;DHT22;8356;51.214;3.270;2022-08-20T14:51:48;640.90;2432.00
16491;DHT22;8356;51.214;3.270;2022-08-20T14:54:13;640.90;2432.00
16491;DHT22;8356;51.214;3.270;2022-08-20T14:56:40;640.40;2432.00
16491;DHT22;8356;51.214;3.270;2022-08-20T14:59:05;640.50;2432.00
16491;DHT22;8356;51.214;3.270;2022-08-20T15:01:31;640.60;2432.00
16491;DHT22;8356;51.214;3.270;2022-08-20T15:03:57;640.40;2432.00
16491;DHT22;8356;51.214;3.270;2022-08-20T15:06:22;640.30;2432.00
16491;DHT22;8356;51.214;3.270;2022-08-20T15:08:48;640.30;2432.00
16491;DHT22;8356;51.214;3.270;2022-08-20T15:11:13;640.30;2432.00
16491;DHT22;8356;51.214;3.270;2022-08-20T15:13:39;640.10;2432.00
16491;DHT22;8356;51.214;3.270;2022-08-20T15:16:05;640.40;2432.00
16491;DHT22;8356;51.214;3.270;2022-08-20T15:18:30;640.40;2432.00